Time;durP1;ratioP1;P1;durP2;ratioP2;P2;SDS_P1;SDS_P2;PMS_P1;PMS_P2;Temp;Humidity;BMP_temperature;BMP_pressure;BME280_temperature;BME280_humidity;BME280_pressure;Samples;Min_cycle;Max_cycle;Signal;HPM_P1;HPM_P2
2024/01/23 00:01:17;;;;;;;4.60;1.40;;;18.40;99.90;;;;;;5103654;27;20033;-75
2024/01/23 00:03:43;;;;;;;10.17;1.60;;;18.40;99.90;;;;;;5107869;27;20065;-74
2024/01/23 00:06:08;;;;;;;7.50;2.07;;;18.40;99.90;;;;;;5124761;27;20483;-74
2024/01/23 00:08:34;;;;;;;9.77;1.50;;;18.40;99.90;;;;;;5120477;27;20047;-72
2024/01/23 00:10:59;;;;;;;7.00;1.87;;;18.40;99.90;;;;;;5127122;27;20031;-74
2024/01/23 00:13:25;;;;;;;7.03;1.27;;;18.40;99.90;;;;;;5126532;27;20544;-73
2024/01/23 00:15:51;;;;;;;5.33;1.40;;;18.40;99.90;;;;;;5118860;27;20023;-74
2024/01/23 00:18:17;;;;;;;3.77;1.30;;;18.40;99.90;;;;;;5121552;27;20059;-74
2024/01/23 00:20:42;;;;;;;6.10;2.10;;;18.30;99.90;;;;;;5105384;28;20069;-75
2024/01/23 00:23:08;;;;;;;5.17;1.67;;;18.30;99.90;;;;;;5123474;27;20030;-72
2024/01/23 00:25:34;;;;;;;6.93;1.80;;;18.30;99.90;;;;;;5100350;27;20032;-75
2024/01/23 00:27:59;;;;;;;7.07;2.30;;;18.30;99.90;;;;;;5121834;27;20030;-72
2024/01/23 00:30:25;;;;;;;4.53;1.17;;;18.30;99.90;;;;;;5106722;27;20037;-74
2024/01/23 00:32:51;;;;;;;8.77;1.80;;;18.30;99.90;;;;;;5097275;27;20062;-75
2024/01/23 00:35:16;;;;;;;6.70;1.83;;;18.30;99.90;;;;;;5128863;27;20023;-74
2024/01/23 00:37:42;;;;;;;8.90;1.77;;;18.20;99.90;;;;;;5125443;27;20028;-74
2024/01/23 00:40:11;;;;;;;9.43;2.27;;;18.20;99.90;;;;;;5121764;27;20023;-73
2024/01/23 00:42:37;;;;;;;7.68;1.73;;;18.20;99.90;;;;;;5117930;27;20039;-73
2024/01/23 00:45:03;;;;;;;8.10;1.30;;;18.20;99.90;;;;;;5120928;27;20031;-73
2024/01/23 00:47:30;;;;;;;5.25;1.50;;;18.20;99.90;;;;;;5120587;27;20490;-74
2024/01/23 00:49:57;;;;;;;8.80;1.70;;;18.20;99.90;;;;;;5104580;27;20032;-73
2024/01/23 00:52:22;;;;;;;3.63;1.55;;;18.10;99.90;;;;;;5100389;27;20077;-73
2024/01/23 00:54:48;;;;;;;4.43;1.53;;;18.10;99.90;;;;;;5108758;27;20075;-73
2024/01/23 00:57:14;;;;;;;7.37;2.00;;;18.10;99.90;;;;;;5127467;27;20027;-72
2024/01/23 00:59:39;;;;;;;5.83;1.50;;;18.10;99.90;;;;;;5126488;27;20082;-73
2024/01/23 01:02:05;;;;;;;8.43;2.17;;;18.10;99.90;;;;;;5124328;27;20038;-73
2024/01/23 01:04:31;;;;;;;2.90;1.17;;;18.10;99.90;;;;;;5113853;27;20031;-72
2024/01/23 01:06:56;;;;;;;7.10;1.93;;;18.10;99.90;;;;;;5122147;27;20031;-72
2024/01/23 01:09:22;;;;;;;5.50;1.73;;;18.10;99.90;;;;;;5101990;28;20063;-73
2024/01/23 01:11:48;;;;;;;5.07;1.33;;;18.10;99.90;;;;;;5116854;27;20036;-74
2024/01/23 01:14:14;;;;;;;6.90;1.63;;;18.10;99.90;;;;;;5124892;27;20095;-72
2024/01/23 01:16:40;;;;;;;4.10;1.42;;;18.10;99.90;;;;;;5124355;27;20034;-73
2024/01/23 01:19:05;;;;;;;5.03;1.67;;;18.00;99.90;;;;;;5123796;27;20038;-73
2024/01/23 01:21:31;;;;;;;8.73;1.80;;;18.00;99.90;;;;;;5119964;27;20031;-73
2024/01/23 01:23:57;;;;;;;6.13;2.07;;;18.00;99.90;;;;;;5104393;27;20109;-73
2024/01/23 01:26:22;;;;;;;6.33;1.37;;;18.00;99.90;;;;;;5118295;27;20032;-73
2024/01/23 01:28:48;;;;;;;5.23;1.43;;;18.00;99.90;;;;;;5119422;27;20092;-72
2024/01/23 01:31:14;;;;;;;6.80;1.90;;;18.00;99.90;;;;;;5122288;27;20031;-72
2024/01/23 01:33:39;;;;;;;7.07;1.47;;;17.90;99.90;;;;;;5122426;27;20028;-73
2024/01/23 01:36:07;;;;;;;6.37;1.70;;;18.00;99.90;;;;;;5116782;27;20376;-73
2024/01/23 01:38:32;;;;;;;9.73;1.70;;;17.90;99.90;;;;;;5117907;27;20027;-73
2024/01/23 01:40:58;;;;;;;4.00;1.23;;;17.90;99.90;;;;;;5124149;27;20033;-72
2024/01/23 01:43:26;;;;;;;5.38;1.55;;;17.90;99.90;;;;;;5129881;27;20024;-72
2024/01/23 01:46:10;;;;;;;8.70;2.22;;;17.90;99.90;;;;;;5121533;27;20563;-73
2024/01/23 01:48:38;;;;;;;6.70;1.52;;;17.90;99.90;;;;;;5100320;27;20051;-73
2024/01/23 01:51:05;;;;;;;5.88;1.30;;;17.90;99.90;;;;;;5125181;27;20020;-72
2024/01/23 01:53:32;;;;;;;7.57;1.65;;;17.90;99.90;;;;;;5122477;27;20753;-73
2024/01/23 01:55:58;;;;;;;7.25;1.48;;;17.80;99.90;;;;;;5121649;27;20031;-72
2024/01/23 01:58:27;;;;;;;12.10;1.80;;;17.80;99.90;;;;;;5104947;27;20027;-72
2024/01/23 02:00:53;;;;;;;6.30;1.60;;;17.80;99.90;;;;;;5123729;27;20118;-73
2024/01/23 02:03:21;;;;;;;5.40;1.40;;;17.80;99.90;;;;;;5121498;27;20481;-72
2024/01/23 02:05:48;;;;;;;4.13;1.40;;;17.80;99.90;;;;;;5119386;27;20041;-72
2024/01/23 02:08:15;;;;;;;6.63;1.60;;;17.80;99.90;;;;;;5094481;27;20059;-72
2024/01/23 02:10:40;;;;;;;9.95;2.03;;;17.70;99.90;;;;;;5121067;27;20373;-72
2024/01/23 02:13:06;;;;;;;8.40;1.77;;;17.80;99.90;;;;;;5119393;27;20043;-73
2024/01/23 02:15:33;;;;;;;9.05;1.90;;;17.70;99.90;;;;;;5113724;27;20058;-72
2024/01/23 02:17:58;;;;;;;5.82;1.58;;;17.70;99.90;;;;;;5101496;27;20552;-72
2024/01/23 02:20:25;;;;;;;5.37;1.60;;;17.70;99.90;;;;;;5128523;27;20102;-72
2024/01/23 02:22:52;;;;;;;4.82;1.33;;;17.70;99.90;;;;;;5125982;27;20588;-72
2024/01/23 02:25:18;;;;;;;8.52;1.92;;;17.70;99.90;;;;;;5098325;28;20023;-72
2024/01/23 02:27:44;;;;;;;3.83;1.40;;;17.70;99.90;;;;;;5118809;27;20475;-72
2024/01/23 02:30:10;;;;;;;4.33;1.70;;;17.70;99.90;;;;;;5126778;27;20392;-72
2024/01/23 02:32:36;;;;;;;7.68;1.70;;;17.70;99.90;;;;;;5103396;27;20945;-72
2024/01/23 02:35:02;;;;;;;8.10;1.63;;;17.60;99.90;;;;;;5119238;27;20031;-72
2024/01/23 02:37:27;;;;;;;5.03;1.60;;;17.60;99.90;;;;;;5122807;27;21744;-72
2024/01/23 02:39:53;;;;;;;5.53;1.23;;;17.60;99.90;;;;;;5122352;27;20038;-72
2024/01/23 02:42:19;;;;;;;8.50;1.60;;;17.60;99.90;;;;;;5114806;27;20031;-72
2024/01/23 02:44:47;;;;;;;7.03;1.50;;;17.60;99.90;;;;;;5120849;27;20034;-71
2024/01/23 02:47:13;;;;;;;7.40;1.95;;;17.60;99.90;;;;;;5118631;28;20057;-72
2024/01/23 02:49:39;;;;;;;9.30;1.70;;;17.60;99.90;;;;;;5120533;27;20752;-72
2024/01/23 02:52:05;;;;;;;7.03;1.70;;;17.60;99.90;;;;;;5114963;28;20107;-73
2024/01/23 02:54:31;;;;;;;7.17;1.90;;;17.60;99.90;;;;;;5116344;28;20114;-72
2024/01/23 02:56:57;;;;;;;8.02;1.50;;;17.50;99.90;;;;;;5102327;28;20035;-72
2024/01/23 02:59:23;;;;;;;6.73;2.10;;;17.50;99.90;;;;;;5119182;28;20362;-72
2024/01/23 03:01:48;;;;;;;8.10;1.47;;;17.50;99.90;;;;;;5121021;28;20027;-73
2024/01/23 03:04:14;;;;;;;6.17;1.27;;;17.50;99.90;;;;;;5116675;28;20032;-73
2024/01/23 03:06:40;;;;;;;5.60;1.30;;;17.50;99.90;;;;;;5123372;28;20278;-73
2024/01/23 03:09:13;;;;;;;9.50;1.73;;;17.50;99.90;;;;;;5127821;28;20040;-72
2024/01/23 03:11:39;;;;;;;7.43;1.35;;;17.50;99.90;;;;;;5121987;28;20024;-72
2024/01/23 03:14:05;;;;;;;6.53;1.50;;;17.40;99.90;;;;;;5097544;28;20063;-72
2024/01/23 03:16:31;;;;;;;5.03;1.37;;;17.50;99.90;;;;;;5119325;28;20074;-72
2024/01/23 03:18:56;;;;;;;6.33;1.30;;;17.40;99.90;;;;;;5125085;28;20267;-72
2024/01/23 03:21:22;;;;;;;7.50;1.63;;;17.40;99.90;;;;;;5108766;28;20054;-72
2024/01/23 03:23:48;;;;;;;5.20;1.90;;;17.40;99.90;;;;;;5121839;28;20051;-72
2024/01/23 03:26:14;;;;;;;8.47;1.50;;;17.40;99.90;;;;;;5122259;28;20380;-72
2024/01/23 03:28:40;;;;;;;6.87;1.27;;;17.40;99.90;;;;;;5126805;28;20027;-72
2024/01/23 03:31:05;;;;;;;8.43;1.73;;;17.30;99.90;;;;;;5126498;28;20076;-72
2024/01/23 03:33:32;;;;;;;5.83;1.67;;;17.30;99.90;;;;;;5122237;28;20063;-72
2024/01/23 03:35:57;;;;;;;4.80;1.58;;;17.40;99.90;;;;;;5127725;28;20020;-72
2024/01/23 03:38:23;;;;;;;6.63;1.17;;;17.40;99.90;;;;;;5123619;28;20038;-72
2024/01/23 03:40:49;;;;;;;5.80;1.97;;;17.40;99.90;;;;;;5102305;28;20047;-72
2024/01/23 03:43:15;;;;;;;6.80;1.67;;;17.30;99.90;;;;;;5117205;28;20031;-72
2024/01/23 03:45:40;;;;;;;5.73;1.40;;;17.30;99.90;;;;;;5120238;28;20103;-72
2024/01/23 03:48:06;;;;;;;6.20;1.63;;;17.30;99.90;;;;;;5119373;28;20044;-72
2024/01/23 03:50:32;;;;;;;6.57;1.33;;;17.30;99.90;;;;;;5122225;28;20633;-73
2024/01/23 03:52:58;;;;;;;6.00;1.70;;;17.30;99.90;;;;;;5116464;28;20031;-72
2024/01/23 03:55:25;;;;;;;13.27;1.83;;;17.30;99.90;;;;;;5104863;28;20028;-72
2024/01/23 03:57:51;;;;;;;5.43;1.50;;;17.30;99.90;;;;;;5102435;27;20468;-72
2024/01/23 04:00:17;;;;;;;10.63;1.80;;;17.20;99.90;;;;;;5122621;27;20031;-72
2024/01/23 04:02:43;;;;;;;7.03;1.60;;;17.20;99.90;;;;;;5118187;27;20028;-72
2024/01/23 04:05:09;;;;;;;8.30;1.70;;;17.20;99.90;;;;;;5115477;27;20507;-72
2024/01/23 04:07:35;;;;;;;4.65;1.30;;;17.20;99.90;;;;;;5116692;27;20035;-72
2024/01/23 04:10:02;;;;;;;7.83;1.33;;;17.20;99.90;;;;;;5120038;27;20115;-72
2024/01/23 04:12:28;;;;;;;6.55;2.20;;;17.20;99.90;;;;;;5117265;27;20076;-72
2024/01/23 04:14:53;;;;;;;6.63;1.33;;;17.20;99.90;;;;;;5102807;28;20073;-72
2024/01/23 04:17:19;;;;;;;7.57;1.67;;;17.20;99.90;;;;;;5126059;27;20042;-72
2024/01/23 04:19:45;;;;;;;7.53;2.40;;;17.20;99.90;;;;;;5111069;27;20071;-72
2024/01/23 04:22:11;;;;;;;5.93;1.40;;;17.20;99.90;;;;;;5128881;27;20583;-72
2024/01/23 04:24:43;;;;;;;4.82;1.52;;;17.10;99.90;;;;;;5131012;27;20105;-72
2024/01/23 04:27:09;;;;;;;5.95;1.58;;;17.10;99.90;;;;;;5118804;27;20039;-72
2024/01/23 04:29:35;;;;;;;3.05;1.02;;;17.10;99.90;;;;;;5116701;27;20246;-72
2024/01/23 04:32:01;;;;;;;5.50;1.45;;;17.10;99.90;;;;;;5128542;27;20043;-73
2024/01/23 04:34:27;;;;;;;8.10;1.67;;;17.10;99.90;;;;;;5102302;27;20033;-72
2024/01/23 04:36:52;;;;;;;9.60;2.33;;;17.10;99.90;;;;;;5102664;27;20373;-72
2024/01/23 04:39:18;;;;;;;7.37;2.00;;;17.10;99.90;;;;;;5120406;27;20520;-72
2024/01/23 04:41:44;;;;;;;7.37;1.43;;;17.00;99.90;;;;;;5125219;27;20062;-72
2024/01/23 04:44:10;;;;;;;8.63;2.03;;;17.00;99.90;;;;;;5120312;27;20059;-72
2024/01/23 04:46:36;;;;;;;6.17;1.40;;;17.00;99.90;;;;;;5099034;28;20028;-72
2024/01/23 04:49:02;;;;;;;9.50;1.95;;;17.00;99.90;;;;;;5127832;27;20047;-72
2024/01/23 04:51:29;;;;;;;7.40;1.63;;;17.00;99.90;;;;;;5118822;27;20473;-72
2024/01/23 04:53:56;;;;;;;7.72;1.80;;;17.00;99.90;;;;;;5124192;27;20413;-72
2024/01/23 04:56:22;;;;;;;4.93;1.52;;;17.00;99.90;;;;;;5122129;27;20047;-72
2024/01/23 04:58:48;;;;;;;5.55;1.38;;;17.00;99.90;;;;;;5103821;27;20035;-72
2024/01/23 05:01:17;;;;;;;9.13;2.33;;;17.00;99.90;;;;;;5123408;27;20030;-72
2024/01/23 05:03:43;;;;;;;7.97;1.80;;;17.00;99.90;;;;;;5109690;27;20027;-72
2024/01/23 05:06:09;;;;;;;6.70;1.98;;;17.00;99.90;;;;;;5125815;27;20023;-72
2024/01/23 05:08:35;;;;;;;9.30;2.07;;;16.90;99.90;;;;;;5123412;27;20046;-72
2024/01/23 05:11:01;;;;;;;10.33;1.53;;;16.90;99.90;;;;;;5116832;27;20472;-72
2024/01/23 05:13:26;;;;;;;6.60;1.73;;;16.90;99.90;;;;;;5122001;27;20114;-73
2024/01/23 05:15:53;;;;;;;9.90;1.80;;;16.90;99.90;;;;;;5108805;28;20035;-72
2024/01/23 05:18:18;;;;;;;7.43;2.20;;;16.90;99.90;;;;;;5122228;27;20092;-72
2024/01/23 05:20:44;;;;;;;5.93;1.83;;;16.90;99.90;;;;;;5103158;27;20035;-72
2024/01/23 05:23:10;;;;;;;8.95;1.73;;;16.90;99.90;;;;;;5121958;27;20028;-72
2024/01/23 05:25:38;;;;;;;9.70;1.50;;;16.90;99.90;;;;;;5123540;27;20026;-72
2024/01/23 05:28:04;;;;;;;7.63;1.85;;;16.80;99.90;;;;;;5104598;27;20168;-72
2024/01/23 05:30:32;;;;;;;3.65;1.20;;;16.80;99.90;;;;;;5109367;27;20106;-72
2024/01/23 05:32:58;;;;;;;6.25;1.30;;;16.80;99.90;;;;;;5120761;27;20031;-72
2024/01/23 05:35:24;;;;;;;5.10;1.60;;;16.90;99.90;;;;;;5100828;27;20479;-72
2024/01/23 05:37:49;;;;;;;5.07;1.43;;;16.80;99.90;;;;;;5123986;27;20596;-73
2024/01/23 05:40:15;;;;;;;6.37;1.73;;;16.80;99.90;;;;;;5106154;28;20499;-72
2024/01/23 05:42:41;;;;;;;8.30;1.27;;;16.80;99.90;;;;;;5124332;27;20395;-73
2024/01/23 05:45:08;;;;;;;4.25;2.33;;;16.80;99.90;;;;;;5107769;27;20035;-73
2024/01/23 05:47:34;;;;;;;5.93;2.03;;;16.80;99.90;;;;;;5101587;28;20024;-73
2024/01/23 05:50:01;;;;;;;8.07;1.67;;;16.80;99.90;;;;;;5118918;27;20031;-72
2024/01/23 05:52:27;;;;;;;4.55;1.80;;;16.80;99.90;;;;;;5123242;27;20400;-71
2024/01/23 05:54:52;;;;;;;7.67;1.80;;;16.80;99.90;;;;;;5128698;27;20024;-72
2024/01/23 05:57:18;;;;;;;8.03;1.40;;;16.80;99.90;;;;;;5120929;27;20095;-72
2024/01/23 05:59:44;;;;;;;9.57;1.70;;;16.70;99.90;;;;;;5117151;27;20039;-72
2024/01/23 06:02:10;;;;;;;14.10;2.00;;;16.70;99.90;;;;;;5118295;27;20038;-72
2024/01/23 06:04:36;;;;;;;8.93;1.98;;;16.70;99.90;;;;;;5127689;27;20525;-72
2024/01/23 06:07:02;;;;;;;4.27;1.17;;;16.70;99.90;;;;;;5118844;27;20031;-72
2024/01/23 06:09:29;;;;;;;7.65;1.60;;;16.70;99.90;;;;;;5118145;27;20519;-72
2024/01/23 06:11:55;;;;;;;7.28;2.13;;;16.70;99.90;;;;;;5105945;27;20123;-72
2024/01/23 06:14:21;;;;;;;6.40;2.00;;;16.70;99.90;;;;;;5121386;27;20076;-72
2024/01/23 06:16:47;;;;;;;5.60;1.30;;;16.70;99.90;;;;;;5115645;27;20047;-72
2024/01/23 06:19:13;;;;;;;9.63;2.07;;;16.70;99.90;;;;;;5117653;27;20037;-72
2024/01/23 06:21:39;;;;;;;5.77;2.13;;;16.70;99.90;;;;;;5124534;27;20461;-72
2024/01/23 06:24:05;;;;;;;5.32;1.80;;;16.70;99.90;;;;;;5113155;27;20349;-72
2024/01/23 06:26:32;;;;;;;6.20;1.65;;;16.60;99.90;;;;;;5120857;27;20126;-72
2024/01/23 06:28:58;;;;;;;3.38;1.20;;;16.60;99.90;;;;;;5121452;27;20030;-72
2024/01/23 06:31:26;;;;;;;7.15;1.30;;;16.60;99.90;;;;;;5124624;27;20019;-72
2024/01/23 06:33:52;;;;;;;10.27;1.95;;;16.60;99.90;;;;;;5118205;27;20116;-72
2024/01/23 06:36:18;;;;;;;7.80;1.60;;;16.60;99.90;;;;;;5102682;28;20023;-72
2024/01/23 06:38:44;;;;;;;10.98;1.85;;;16.60;99.90;;;;;;5099036;28;20369;-72
2024/01/23 06:41:10;;;;;;;7.23;1.53;;;16.60;99.90;;;;;;5113117;27;20038;-72
2024/01/23 06:43:36;;;;;;;7.32;1.52;;;16.50;99.90;;;;;;5113473;28;20028;-72
2024/01/23 06:46:02;;;;;;;5.70;1.40;;;16.60;99.90;;;;;;5120770;27;20488;-72
2024/01/23 06:48:28;;;;;;;5.10;1.90;;;16.50;99.90;;;;;;5116964;27;20047;-72
2024/01/23 06:50:54;;;;;;;6.88;1.70;;;16.50;99.90;;;;;;5096754;28;20036;-72
2024/01/23 06:53:19;;;;;;;11.97;1.47;;;16.50;99.90;;;;;;5118896;28;20034;-73
2024/01/23 06:55:45;;;;;;;6.73;1.50;;;16.50;99.90;;;;;;5124093;28;20396;-72
2024/01/23 06:58:11;;;;;;;5.25;1.67;;;16.50;99.90;;;;;;5109594;28;20495;-72
2024/01/23 07:00:37;;;;;;;5.33;1.27;;;16.50;99.90;;;;;;5114909;28;20027;-72
2024/01/23 07:03:03;;;;;;;4.93;1.45;;;16.50;99.90;;;;;;5118756;28;20027;-72
2024/01/23 07:05:29;;;;;;;6.87;1.63;;;16.50;99.90;;;;;;5115715;28;20128;-72
2024/01/23 07:07:55;;;;;;;5.90;1.40;;;16.50;99.90;;;;;;5117181;28;20034;-72
2024/01/23 07:10:20;;;;;;;4.80;1.57;;;16.50;99.90;;;;;;5117006;28;20035;-72
2024/01/23 07:12:46;;;;;;;9.10;1.50;;;16.50;99.90;;;;;;5128624;28;20035;-72
2024/01/23 07:15:12;;;;;;;5.90;1.60;;;16.40;99.90;;;;;;5122273;28;20023;-72
2024/01/23 07:17:37;;;;;;;7.10;1.83;;;16.40;99.90;;;;;;5111088;28;20460;-72
2024/01/23 07:20:05;;;;;;;5.33;1.80;;;16.40;99.90;;;;;;5112846;28;20032;-72
2024/01/23 07:22:30;;;;;;;8.40;2.20;;;16.40;99.90;;;;;;5097352;28;20028;-72
2024/01/23 07:25:00;;;;;;;9.73;1.93;;;16.40;99.90;;;;;;5115578;28;20031;-71
2024/01/23 07:27:26;;;;;;;6.50;1.80;;;16.40;99.90;;;;;;5114695;28;20032;-71
2024/01/23 07:29:52;;;;;;;8.40;1.60;;;16.30;99.90;;;;;;5108019;28;20062;-69
2024/01/23 07:32:18;;;;;;;8.27;1.67;;;16.30;99.90;;;;;;5110925;27;20023;-71
2024/01/23 07:34:44;;;;;;;9.48;1.85;;;16.30;99.90;;;;;;5108640;27;20036;-71
2024/01/23 07:37:10;;;;;;;10.50;1.70;;;16.30;99.90;;;;;;5126995;27;20042;-71
2024/01/23 07:39:36;;;;;;;13.40;2.40;;;16.30;99.90;;;;;;5129923;27;20061;-71
2024/01/23 07:42:02;;;;;;;18.98;3.08;;;16.30;99.90;;;;;;5117346;27;20027;-71
2024/01/23 07:44:28;;;;;;;12.02;1.85;;;16.20;99.90;;;;;;5130626;27;20031;-71
2024/01/23 07:46:54;;;;;;;7.95;2.05;;;16.20;99.90;;;;;;5131827;27;20119;-71
2024/01/23 07:49:20;;;;;;;17.47;2.00;;;16.20;99.90;;;;;;5124728;27;20480;-71
2024/01/23 07:51:50;;;;;;;12.73;2.70;;;16.30;99.90;;;;;;5124999;27;20038;-71
2024/01/23 07:54:16;;;;;;;11.50;2.50;;;16.20;99.90;;;;;;5127876;27;20476;-71
2024/01/23 07:56:41;;;;;;;8.83;2.27;;;16.30;99.90;;;;;;5123481;27;20050;-71
2024/01/23 07:59:07;;;;;;;15.87;7.70;;;16.30;99.90;;;;;;5101737;28;20264;-72
2024/01/23 08:01:33;;;;;;;26.97;10.97;;;16.30;99.90;;;;;;5120813;27;20452;-73
2024/01/23 08:03:58;;;;;;;72.93;42.13;;;16.30;99.90;;;;;;5123131;27;20126;-72
2024/01/23 08:06:24;;;;;;;68.27;41.43;;;16.40;99.90;;;;;;5126356;27;20035;-72
2024/01/23 08:08:50;;;;;;;55.03;31.37;;;16.40;99.90;;;;;;5100626;27;20472;-71
2024/01/23 08:11:17;;;;;;;56.50;31.17;;;16.40;99.90;;;;;;5120336;27;20771;-71
2024/01/23 08:13:43;;;;;;;46.30;26.63;;;16.50;99.90;;;;;;5123933;27;20182;-71
2024/01/23 08:16:09;;;;;;;41.80;23.33;;;16.50;99.90;;;;;;5120564;27;20031;-71
2024/01/23 08:18:36;;;;;;;45.15;22.38;;;16.60;99.90;;;;;;5103758;27;20687;-71
2024/01/23 08:21:02;;;;;;;;;;;16.70;99.90;;;;;;5124121;27;20366;-71
2024/01/23 08:23:28;;;;;;;42.90;19.98;;;16.80;99.90;;;;;;5129061;27;19915;-71
2024/01/23 08:25:54;;;;;;;41.20;20.80;;;16.80;99.90;;;;;;5101588;28;20031;-71
2024/01/23 08:28:19;;;;;;;43.80;19.40;;;16.90;99.90;;;;;;5122085;27;20050;-72
2024/01/23 08:30:45;;;;;;;42.77;18.17;;;17.00;99.90;;;;;;5123056;27;20066;-74
2024/01/23 08:33:18;;;;;;;45.30;17.77;;;17.10;99.90;;;;;;5127941;27;20395;-73
2024/01/23 08:35:44;;;;;;;38.55;16.30;;;17.10;99.90;;;;;;5110916;27;20498;-75
2024/01/23 08:38:10;;;;;;;52.92;16.67;;;17.20;99.90;;;;;;5104139;28;20447;-73
2024/01/23 08:40:37;;;;;;;45.03;16.92;;;17.50;99.90;;;;;;5116435;27;20023;-74
2024/01/23 08:43:06;;;;;;;;;;;17.90;99.90;;;;;;5123576;27;20160;-71
2024/01/23 08:45:31;;;;;;;33.60;14.40;;;18.20;99.90;;;;;;5127127;27;19919;-74
2024/01/23 08:47:58;;;;;;;38.83;16.00;;;18.30;99.90;;;;;;5124123;27;20047;-70
2024/01/23 08:50:24;;;;;;;38.00;15.70;;;18.60;99.90;;;;;;5128320;27;20042;-70
2024/01/23 08:52:49;;;;;;;45.27;14.47;;;18.70;99.90;;;;;;5130425;27;20035;-70
2024/01/23 08:55:15;;;;;;;40.37;14.37;;;18.80;99.90;;;;;;5124200;27;20023;-70
2024/01/23 08:57:43;;;;;;;32.57;13.83;;;19.00;99.90;;;;;;5124051;27;20055;-70
2024/01/23 09:00:11;;;;;;;25.05;12.80;;;19.20;99.90;;;;;;5132850;27;20267;-71
2024/01/23 09:02:37;;;;;;;26.73;13.52;;;19.40;99.90;;;;;;5121292;27;20031;-70
2024/01/23 09:05:04;;;;;;;25.90;12.90;;;19.60;99.90;;;;;;5124403;27;20357;-70
2024/01/23 09:07:29;;;;;;;23.10;12.20;;;19.00;99.90;;;;;;5118930;27;20039;-72
2024/01/23 09:09:55;;;;;;;34.83;13.10;;;18.50;99.90;;;;;;5108293;27;20173;-71
2024/01/23 09:12:21;;;;;;;30.90;15.03;;;18.40;99.90;;;;;;5122039;27;20027;-72
2024/01/23 09:14:47;;;;;;;33.15;14.55;;;18.30;99.90;;;;;;5117619;27;20028;-71
2024/01/23 09:17:13;;;;;;;29.38;14.13;;;18.20;99.90;;;;;;5120205;27;20035;-70
2024/01/23 09:19:39;;;;;;;30.23;15.43;;;18.20;99.90;;;;;;5124824;27;20027;-69
2024/01/23 09:22:06;;;;;;;43.90;17.45;;;18.20;99.90;;;;;;5123520;27;20027;-69
2024/01/23 09:24:32;;;;;;;26.48;14.63;;;18.20;99.90;;;;;;5118117;27;20472;-69
2024/01/23 09:27:01;;;;;;;31.27;13.55;;;18.50;99.90;;;;;;5120683;27;20110;-69
2024/01/23 09:29:30;;;;;;;31.00;14.73;;;19.20;99.90;;;;;;5121933;27;20042;-69
2024/01/23 09:31:56;;;;;;;32.47;14.23;;;19.80;99.90;;;;;;5128078;27;20077;-70
2024/01/23 09:34:21;;;;;;;29.00;15.53;;;20.10;99.90;;;;;;5120832;27;20460;-69
2024/01/23 09:36:47;;;;;;;29.40;13.03;;;20.20;99.70;;;;;;5125094;27;20115;-69
2024/01/23 09:39:13;;;;;;;41.53;13.80;;;20.50;99.60;;;;;;5125470;27;20373;-71
2024/01/23 09:41:54;;;;;;;42.42;14.10;;;20.40;99.50;;;;;;5119714;27;20061;-71
2024/01/23 09:44:20;;;;;;;25.60;12.80;;;19.60;99.70;;;;;;5116478;27;20396;-71
2024/01/23 09:46:50;;;;;;;25.80;12.40;;;19.70;99.90;;;;;;5120284;27;20485;-71
2024/01/23 09:49:16;;;;;;;25.10;13.55;;;19.70;99.90;;;;;;5098305;28;20491;-71
2024/01/23 09:51:47;;;;;;;27.55;12.45;;;19.80;99.90;;;;;;5103508;28;20035;-72
2024/01/23 09:54:17;;;;;;;23.27;12.43;;;20.10;99.70;;;;;;5100308;28;20024;-73
2024/01/23 09:56:43;;;;;;;23.15;11.20;;;20.60;99.50;;;;;;5099790;28;20027;-71
2024/01/23 09:59:12;;;;;;;26.35;12.13;;;20.00;99.30;;;;;;5104290;28;20035;-69
2024/01/23 10:01:38;;;;;;;25.98;12.43;;;19.40;99.90;;;;;;5105872;28;20111;-69
2024/01/23 10:04:04;;;;;;;22.73;11.15;;;19.00;99.90;;;;;;5104788;28;20103;-70
2024/01/23 10:06:34;;;;;;;29.15;10.82;;;18.90;99.90;;;;;;5100953;28;20526;-70
2024/01/23 10:09:00;;;;;;;26.50;11.10;;;18.80;99.90;;;;;;5102405;28;20450;-70
2024/01/23 10:11:32;;;;;;;21.48;11.45;;;18.90;99.90;;;;;;5100559;28;20035;-71
2024/01/23 10:14:01;;;;;;;25.73;10.23;;;18.90;99.90;;;;;;5102999;28;20024;-71
2024/01/23 10:16:27;;;;;;;27.98;10.75;;;19.20;99.90;;;;;;5095780;28;20039;-70
2024/01/23 10:18:53;;;;;;;19.75;10.40;;;19.50;99.90;;;;;;5099579;28;20039;-70
2024/01/23 10:21:23;;;;;;;25.53;10.33;;;19.50;99.90;;;;;;5097008;28;20472;-71
2024/01/23 10:23:49;;;;;;;17.95;9.95;;;19.90;99.90;;;;;;5108868;28;20067;-71
2024/01/23 10:26:17;;;;;;;17.38;8.95;;;20.30;99.90;;;;;;5096809;28;20028;-71
2024/01/23 10:28:46;;;;;;;32.58;18.30;;;20.50;99.80;;;;;;5100830;28;20084;-72
2024/01/23 10:31:13;;;;;;;45.78;24.27;;;20.20;99.80;;;;;;5102536;28;20023;-77
2024/01/23 10:33:40;;;;;;;37.92;19.67;;;20.20;99.90;;;;;;5097533;28;20024;-73
2024/01/23 10:38:21;;;;;;;42.78;21.75;;;20.40;99.40;;;;;;5063107;28;20388;-77
2024/01/23 10:40:48;;;;;;;42.97;21.35;;;19.90;99.90;;;;;;5061952;28;20027;-77
2024/01/23 10:43:14;;;;;;;;;;;19.80;99.90;;;;;;5061615;28;20060;-75
2024/01/23 10:45:39;;;;;;;35.15;19.48;;;19.70;99.90;;;;;;5064281;28;20281;-78
2024/01/23 10:48:07;;;;;;;36.90;19.70;;;19.60;99.90;;;;;;5069791;28;20032;-77
2024/01/23 10:50:34;;;;;;;34.97;18.98;;;19.50;99.90;;;;;;5071043;28;20135;-74
2024/01/23 10:53:06;;;;;;;34.13;17.85;;;19.60;99.90;;;;;;5061343;28;20456;-75
2024/01/23 10:55:32;;;;;;;40.50;18.15;;;19.40;99.90;;;;;;5058173;28;20433;-75
2024/01/23 10:58:16;;;;;;;38.55;19.52;;;19.30;99.90;;;;;;5058782;28;20120;-74
2024/01/23 11:00:43;;;;;;;39.28;17.52;;;19.40;99.90;;;;;;5054708;28;20142;-73
2024/01/23 11:03:11;;;;;;;35.25;16.85;;;19.40;99.90;;;;;;5052176;28;20366;-73
2024/01/23 11:05:46;;;;;;;54.78;32.28;;;19.30;99.90;;;;;;5061516;28;20035;-74
2024/01/23 11:08:30;;;;;;;40.50;24.27;;;19.40;99.90;;;;;;5058047;28;20111;-75
2024/01/23 11:11:17;;;;;;;41.60;22.48;;;19.70;99.90;;;;;;5055045;28;20029;-72
2024/01/23 11:13:48;;;;;;;39.60;21.90;;;19.60;99.90;;;;;;5060688;28;20029;-73
2024/01/23 11:16:14;;;;;;;38.05;21.25;;;20.70;99.90;;;;;;5060036;28;20048;-73
2024/01/23 11:18:40;;;;;;;35.70;20.33;;;21.30;99.20;;;;;;5060110;28;20814;-75
2024/01/23 11:21:08;;;;;;;34.58;18.92;;;20.90;99.30;;;;;;5060369;28;20494;-73
2024/01/23 11:23:36;;;;;;;36.70;19.60;;;20.40;99.90;;;;;;5061767;28;20028;-73
2024/01/23 11:26:22;;;;;;;37.03;18.38;;;20.90;99.90;;;;;;5061076;28;20032;-73
2024/01/23 11:28:54;;;;;;;38.17;16.98;;;21.20;99.50;;;;;;5057777;28;20556;-74
2024/01/23 11:31:21;;;;;;;35.20;18.63;;;21.50;99.10;;;;;;5063928;28;20024;-74
2024/01/23 11:33:48;;;;;;;29.05;17.73;;;21.10;99.40;;;;;;5064479;28;20059;-73
2024/01/23 11:36:27;;;;;;;34.17;17.90;;;20.60;99.90;;;;;;5061990;28;20070;-73
2024/01/23 11:38:57;;;;;;;34.00;17.83;;;20.10;99.90;;;;;;5059391;28;20036;-77
2024/01/23 11:41:27;;;;;;;33.05;16.90;;;19.80;99.90;;;;;;5062775;28;20037;-77
2024/01/23 11:44:03;;;;;;;37.42;17.75;;;20.00;99.90;;;;;;5062699;28;20028;-75
2024/01/23 11:46:30;;;;;;;32.33;16.45;;;20.30;99.90;;;;;;5047188;28;20025;-75
2024/01/23 11:48:55;;;;;;;30.30;16.65;;;20.20;99.90;;;;;;5056033;28;20021;-73
2024/01/23 11:51:22;;;;;;;31.03;16.00;;;20.10;99.90;;;;;;5042494;28;20124;-74
2024/01/23 11:53:47;;;;;;;;;;;19.90;99.90;;;;;;5049656;28;20385;-76
2024/01/23 11:56:15;;;;;;;30.37;14.10;;;20.00;99.90;;;;;;5037253;28;19916;-74
2024/01/23 11:58:42;;;;;;;28.30;14.52;;;19.90;99.90;;;;;;5044307;28;20056;-78
2024/01/23 12:01:14;;;;;;;32.40;14.73;;;19.70;99.90;;;;;;5038449;28;20025;-75
2024/01/23 12:03:50;;;;;;;32.45;15.48;;;19.60;99.90;;;;;;5048149;28;20386;-75
2024/01/23 12:06:17;;;;;;;34.10;15.25;;;19.80;99.90;;;;;;5050175;28;20064;-75
2024/01/23 12:08:43;;;;;;;29.98;15.43;;;19.90;99.90;;;;;;5045545;28;20029;-77
2024/01/23 12:11:09;;;;;;;;;;;20.00;99.90;;;;;;5046913;28;20569;-74
2024/01/23 12:13:37;;;;;;;30.27;13.05;;;20.10;99.90;;;;;;5044049;28;19991;-79
2024/01/23 12:16:06;;;;;;;29.45;13.32;;;20.20;99.90;;;;;;5053864;28;20028;-76
2024/01/23 12:18:32;;;;;;;26.38;13.07;;;20.10;99.90;;;;;;5048789;28;20040;-76
2024/01/23 12:20:58;;;;;;;30.30;13.27;;;20.00;99.90;;;;;;5044719;28;20026;-78
2024/01/23 12:23:25;;;;;;;29.40;12.73;;;19.90;99.90;;;;;;5039800;28;20041;-74
2024/01/23 12:25:50;;;;;;;30.88;12.30;;;19.90;99.90;;;;;;5047547;28;20051;-77
2024/01/23 12:28:20;;;;;;;29.50;12.87;;;19.70;99.90;;;;;;5043905;28;20029;-74
2024/01/23 12:30:46;;;;;;;31.67;12.52;;;19.60;99.90;;;;;;5071594;28;20415;-76
2024/01/23 12:33:17;;;;;;;26.05;11.63;;;19.50;99.90;;;;;;5042212;28;20110;-75
2024/01/23 12:35:47;;;;;;;23.40;11.23;;;19.40;99.90;;;;;;5042048;28;20051;-75
2024/01/23 12:38:18;;;;;;;23.23;10.52;;;19.30;99.90;;;;;;5045487;28;20061;-76
2024/01/23 12:40:44;;;;;;;23.23;10.80;;;19.20;99.90;;;;;;5043633;28;20032;-77